Terminal Aerodrome Forecast
Issued by NWS

Home | Current Version | Previous Version | Graphics & Text | Print | Product List | Glossary On
Versions: 1 2 3 4 5 6 7 8 9 10 11 12 13 14 15 16 17 18 19
084
FTUS43 KICT 111131
TAFSLN
TAF
KSLN 111131Z 1112/1212 02008KT P6SM OVC008
     FM111700 07004KT P6SM BKN015
     FM111900 11004KT P6SM SCT015
     FM112100 19005KT P6SM SCT250
     FM120800 25005KT P6SM SCT250=

USA.gov is the U.S. government's official web portal to all federal, state and local government web resources and services.